sensor_id;sensor_type;location;lat;lon;timestamp;pressure;altitude;pressure_sealevel;temperature;humidity
7018;BME280;3549;42.162;24.726;2023-10-13T00:01:33;47588.28;;;-141.97;66.80
7018;BME280;3549;42.162;24.726;2023-10-13T00:03:59;47594.03;;;-141.97;67.25
7018;BME280;3549;42.162;24.726;2023-10-13T00:06:24;47595.97;;;-141.97;67.89
7018;BME280;3549;42.162;24.726;2023-10-13T00:08:52;47557.53;;;-141.97;67.87
7018;BME280;3549;42.162;24.726;2023-10-13T00:11:17;47644.00;;;-141.97;68.11
7018;BME280;3549;42.162;24.726;2023-10-13T00:13:43;47615.19;;;-141.97;68.85
7018;BME280;3549;42.162;24.726;2023-10-13T00:16:19;47580.59;;;-141.97;69.00
7018;BME280;3549;42.162;24.726;2023-10-13T00:18:52;47499.84;;;-141.97;68.98
7018;BME280;3549;42.162;24.726;2023-10-13T00:21:23;47626.72;;;-141.97;68.74
7018;BME280;3549;42.162;24.726;2023-10-13T00:23:58;47599.81;;;-141.97;68.76
7018;BME280;3549;42.162;24.726;2023-10-13T00:26:31;47595.97;;;-141.97;68.88
7018;BME280;3549;42.162;24.726;2023-10-13T00:29:02;47582.50;;;-141.97;68.98
7018;BME280;3549;42.162;24.726;2023-10-13T00:31:37;47588.28;;;-141.97;69.06
7018;BME280;3549;42.162;24.726;2023-10-13T00:34:04;47619.03;;;-141.97;69.11
7018;BME280;3549;42.162;24.726;2023-10-13T00:36:55;47615.19;;;-141.97;68.71
7018;BME280;3549;42.162;24.726;2023-10-13T00:39:39;47576.75;;;-141.97;68.84
7018;BME280;3549;42.162;24.726;2023-10-13T00:42:13;47559.44;;;-141.97;69.10
7018;BME280;3549;42.162;24.726;2023-10-13T00:44:58;47557.53;;;-141.97;69.23
7018;BME280;3549;42.162;24.726;2023-10-13T00:47:26;47597.88;;;-141.97;68.85
7018;BME280;3549;42.162;24.726;2023-10-13T00:50:04;47580.59;;;-141.97;68.65
7018;BME280;3549;42.162;24.726;2023-10-13T00:52:31;47599.81;;;-141.97;69.48
7018;BME280;3549;42.162;24.726;2023-10-13T00:54:59;47580.59;;;-141.97;70.07
7018;BME280;3549;42.162;24.726;2023-10-13T00:57:25;47594.03;;;-141.97;70.38
7018;BME280;3549;42.162;24.726;2023-10-13T00:59:56;47607.50;;;-141.97;70.11
7018;BME280;3549;42.162;24.726;2023-10-13T01:02:23;47611.34;;;-141.97;70.07
7018;BME280;3549;42.162;24.726;2023-10-13T01:05:04;47711.28;;;-141.97;69.53
7018;BME280;3549;42.162;24.726;2023-10-13T01:07:30;47582.50;;;-141.97;69.24
7018;BME280;3549;42.162;24.726;2023-10-13T01:09:56;47595.97;;;-141.97;68.62
7018;BME280;3549;42.162;24.726;2023-10-13T01:12:21;47576.75;;;-141.97;68.84
7018;BME280;3549;42.162;24.726;2023-10-13T01:14:50;47609.41;;;-141.97;68.23
7018;BME280;3549;42.162;24.726;2023-10-13T01:17:15;47617.09;;;-141.97;68.22
7018;BME280;3549;42.162;24.726;2023-10-13T01:19:40;47599.81;;;-141.97;68.76
7018;BME280;3549;42.162;24.726;2023-10-13T01:22:10;47718.97;;;-141.97;68.46
7018;BME280;3549;42.162;24.726;2023-10-13T01:24:36;47565.22;;;-141.97;68.58
7018;BME280;3549;42.162;24.726;2023-10-13T01:27:05;47607.50;;;-141.97;68.56
7018;BME280;3549;42.162;24.726;2023-10-13T01:29:46;47590.19;;;-141.97;68.82
7018;BME280;3549;42.162;24.726;2023-10-13T01:32:21;47494.09;;;-141.97;68.57
7018;BME280;3549;42.162;24.726;2023-10-13T01:34:47;47684.38;;;-141.97;68.56
7018;BME280;3549;42.162;24.726;2023-10-13T01:37:14;47542.16;;;-141.97;68.97
7018;BME280;3549;42.162;24.726;2023-10-13T01:39:41;47630.56;;;-141.97;69.60
7018;BME280;3549;42.162;24.726;2023-10-13T01:42:07;47569.06;;;-141.97;69.47
7018;BME280;3549;42.162;24.726;2023-10-13T01:44:32;47599.81;;;-141.97;69.29
7018;BME280;3549;42.162;24.726;2023-10-13T01:46:58;47455.66;;;-141.97;69.56
7018;BME280;3549;42.162;24.726;2023-10-13T01:49:25;47680.53;;;-141.97;69.40
7018;BME280;3549;42.162;24.726;2023-10-13T01:51:50;47509.47;;;-141.97;69.75
7018;BME280;3549;42.162;24.726;2023-10-13T01:54:16;47645.94;;;-141.97;69.39
7018;BME280;3549;42.162;24.726;2023-10-13T01:56:42;47522.91;;;-141.97;69.66
7018;BME280;3549;42.162;24.726;2023-10-13T01:59:11;47607.50;;;-141.97;69.51
7018;BME280;3549;42.162;24.726;2023-10-13T02:01:37;47561.38;;;-141.97;69.54
7018;BME280;3549;42.162;24.726;2023-10-13T02:04:03;47530.59;;;-141.97;69.52
7018;BME280;3549;42.162;24.726;2023-10-13T02:06:30;47622.88;;;-141.97;69.87
7018;BME280;3549;42.162;24.726;2023-10-13T02:09:06;47494.09;;;-141.97;69.66
7018;BME280;3549;42.162;24.726;2023-10-13T02:11:39;47526.75;;;-141.97;69.54
7018;BME280;3549;42.162;24.726;2023-10-13T02:14:06;47534.44;;;-141.97;69.83
7018;BME280;3549;42.162;24.726;2023-10-13T02:16:31;47584.44;;;-141.97;69.23
7018;BME280;3549;42.162;24.726;2023-10-13T02:18:57;47680.53;;;-141.97;69.80
7018;BME280;3549;42.162;24.726;2023-10-13T02:21:29;47722.81;;;-141.97;69.66
7018;BME280;3549;42.162;24.726;2023-10-13T02:23:56;47607.50;;;-141.97;69.60
7018;BME280;3549;42.162;24.726;2023-10-13T02:26:26;47603.66;;;-141.97;69.59
7018;BME280;3549;42.162;24.726;2023-10-13T02:29:01;47661.31;;;-141.97;69.49
7018;BME280;3549;42.162;24.726;2023-10-13T02:31:35;47513.31;;;-141.97;69.14
7018;BME280;3549;42.162;24.726;2023-10-13T02:34:00;47499.84;;;-141.97;68.95
7018;BME280;3549;42.162;24.726;2023-10-13T02:36:31;47519.06;;;-141.97;68.94
7018;BME280;3549;42.162;24.726;2023-10-13T02:39:05;47611.34;;;-141.97;69.78
7018;BME280;3549;42.162;24.726;2023-10-13T02:41:34;47611.34;;;-141.97;69.72
7018;BME280;3549;42.162;24.726;2023-10-13T02:44:04;47592.13;;;-141.97;70.09
7018;BME280;3549;42.162;24.726;2023-10-13T02:46:34;47572.91;;;-141.97;69.47
7018;BME280;3549;42.162;24.726;2023-10-13T02:49:05;47622.88;;;-141.97;69.92
7018;BME280;3549;42.162;24.726;2023-10-13T02:51:38;47634.41;;;-141.97;69.77
7018;BME280;3549;42.162;24.726;2023-10-13T02:54:07;47622.88;;;-141.97;70.91
7018;BME280;3549;42.162;24.726;2023-10-13T02:56:37;47707.44;;;-141.97;71.59
7018;BME280;3549;42.162;24.726;2023-10-13T02:59:03;47619.03;;;-141.97;72.04
7018;BME280;3549;42.162;24.726;2023-10-13T03:01:33;47574.81;;;-141.97;71.75
7018;BME280;3549;42.162;24.726;2023-10-13T03:04:02;47613.25;;;-141.97;71.65
7018;BME280;3549;42.162;24.726;2023-10-13T03:06:28;47561.38;;;-141.97;71.34
7018;BME280;3549;42.162;24.726;2023-10-13T03:09:04;47599.81;;;-141.97;71.86
7018;BME280;3549;42.162;24.726;2023-10-13T03:11:41;47570.97;;;-141.97;71.91
7018;BME280;3549;42.162;24.726;2023-10-13T03:14:18;47570.97;;;-141.97;72.29
7018;BME280;3549;42.162;24.726;2023-10-13T03:16:54;47607.50;;;-141.97;72.53
7018;BME280;3549;42.162;24.726;2023-10-13T03:19:20;47590.19;;;-141.97;72.94
7018;BME280;3549;42.162;24.726;2023-10-13T03:21:46;47603.66;;;-141.97;72.74
7018;BME280;3549;42.162;24.726;2023-10-13T03:24:22;47607.50;;;-141.97;72.81
7018;BME280;3549;42.162;24.726;2023-10-13T03:27:04;47611.34;;;-141.97;72.45
7018;BME280;3549;42.162;24.726;2023-10-13T03:29:40;47578.66;;;-141.97;73.02
7018;BME280;3549;42.162;24.726;2023-10-13T03:32:13;47569.06;;;-141.97;73.25
7018;BME280;3549;42.162;24.726;2023-10-13T03:34:43;47576.75;;;-141.97;74.26
7018;BME280;3549;42.162;24.726;2023-10-13T03:37:27;47569.06;;;-141.97;73.64
7018;BME280;3549;42.162;24.726;2023-10-13T03:40:08;47663.22;;;-141.97;73.60
7018;BME280;3549;42.162;24.726;2023-10-13T03:42:51;47588.28;;;-141.97;73.49
7018;BME280;3549;42.162;24.726;2023-10-13T03:45:38;47559.44;;;-141.97;74.38
7018;BME280;3549;42.162;24.726;2023-10-13T03:48:16;47599.81;;;-141.97;73.97
7018;BME280;3549;42.162;24.726;2023-10-13T03:50:58;47590.19;;;-141.97;73.85
7018;BME280;3549;42.162;24.726;2023-10-13T03:53:37;47609.41;;;-141.97;73.04
7018;BME280;3549;42.162;24.726;2023-10-13T03:56:18;47588.28;;;-141.97;72.75
7018;BME280;3549;42.162;24.726;2023-10-13T03:58:52;47594.03;;;-141.97;72.30
7018;BME280;3549;42.162;24.726;2023-10-13T04:01:20;47599.81;;;-141.97;71.86
7018;BME280;3549;42.162;24.726;2023-10-13T04:03:56;47557.53;;;-141.97;71.66
7018;BME280;3549;42.162;24.726;2023-10-13T04:06:37;47617.09;;;-141.97;71.92
7018;BME280;3549;42.162;24.726;2023-10-13T04:09:18;47592.13;;;-141.97;71.66
7018;BME280;3549;42.162;24.726;2023-10-13T04:11:59;47546.00;;;-141.97;71.93
7018;BME280;3549;42.162;24.726;2023-10-13T04:17:14;47601.72;;;-141.97;72.59
7018;BME280;3549;42.162;24.726;2023-10-13T04:19:41;47599.81;;;-141.97;72.08
7018;BME280;3549;42.162;24.726;2023-10-13T04:22:29;47607.50;;;-141.97;72.47
7018;BME280;3549;42.162;24.726;2023-10-13T04:25:13;47619.03;;;-141.97;72.15
7018;BME280;3549;42.162;24.726;2023-10-13T04:27:59;47594.03;;;-141.97;72.02
7018;BME280;3549;42.162;24.726;2023-10-13T04:36:17;47553.69;;;-141.97;71.92
7018;BME280;3549;42.162;24.726;2023-10-13T04:38:49;47605.56;;;-141.97;72.06
7018;BME280;3549;42.162;24.726;2023-10-13T04:41:28;47580.59;;;-141.97;72.67
7018;BME280;3549;42.162;24.726;2023-10-13T04:44:02;47542.16;;;-141.97;73.22
7018;BME280;3549;42.162;24.726;2023-10-13T04:46:48;47636.31;;;-141.97;73.32
7018;BME280;3549;42.162;24.726;2023-10-13T04:49:14;47565.22;;;-141.97;73.60
7018;BME280;3549;42.162;24.726;2023-10-13T04:52:15;47617.09;;;-141.97;73.34
7018;BME280;3549;42.162;24.726;2023-10-13T04:55:13;47615.19;;;-141.97;73.08
7018;BME280;3549;42.162;24.726;2023-10-13T04:57:49;47611.34;;;-141.97;73.11
7018;BME280;3549;42.162;24.726;2023-10-13T05:00:25;47563.28;;;-141.97;73.41
7018;BME280;3549;42.162;24.726;2023-10-13T05:03:09;47619.03;;;-141.97;72.93
7018;BME280;3549;42.162;24.726;2023-10-13T05:05:53;47546.00;;;-141.97;72.55
7018;BME280;3549;42.162;24.726;2023-10-13T05:08:53;47622.88;;;-141.97;72.06
7018;BME280;3549;42.162;24.726;2023-10-13T05:11:37;47574.81;;;-141.97;72.52
7018;BME280;3549;42.162;24.726;2023-10-13T05:14:21;47607.50;;;-141.97;72.40
7018;BME280;3549;42.162;24.726;2023-10-13T05:17:05;47638.25;;;-141.97;71.56
7018;BME280;3549;42.162;24.726;2023-10-13T05:19:49;47628.63;;;-141.97;72.12
7018;BME280;3549;42.162;24.726;2023-10-13T05:22:33;47624.78;;;-141.97;71.52
7018;BME280;3549;42.162;24.726;2023-10-13T05:25:17;47580.59;;;-141.97;70.91
7018;BME280;3549;42.162;24.726;2023-10-13T05:28:01;47597.88;;;-141.97;70.76
7018;BME280;3549;42.162;24.726;2023-10-13T05:30:45;47582.50;;;-141.97;71.02
7018;BME280;3549;42.162;24.726;2023-10-13T05:33:28;47622.88;;;-141.97;70.84
7018;BME280;3549;42.162;24.726;2023-10-13T05:36:12;47582.50;;;-141.97;70.58
7018;BME280;3549;42.162;24.726;2023-10-13T05:38:56;47636.31;;;-141.97;70.05
7018;BME280;3549;42.162;24.726;2023-10-13T05:41:45;47626.72;;;-141.97;69.78
7018;BME280;3549;42.162;24.726;2023-10-13T05:44:29;47551.75;;;-141.97;69.58
7018;BME280;3549;42.162;24.726;2023-10-13T05:47:12;47613.25;;;-141.97;69.38
7018;BME280;3549;42.162;24.726;2023-10-13T05:50:13;47615.19;;;-141.97;68.43
7018;BME280;3549;42.162;24.726;2023-10-13T05:52:54;47619.03;;;-141.97;68.00
7018;BME280;3549;42.162;24.726;2023-10-13T05:55:27;47624.78;;;-141.97;67.61
7018;BME280;3549;42.162;24.726;2023-10-13T05:58:11;47720.91;;;-141.97;66.70
7018;BME280;3549;42.162;24.726;2023-10-13T06:00:55;47599.81;;;-141.97;66.18
7018;BME280;3549;42.162;24.726;2023-10-13T06:03:40;47703.59;;;-141.97;65.70
7018;BME280;3549;42.162;24.726;2023-10-13T06:06:24;47599.81;;;-141.97;65.00
7018;BME280;3549;42.162;24.726;2023-10-13T06:09:08;47653.63;;;-141.97;64.28
7018;BME280;3549;42.162;24.726;2023-10-13T06:11:52;47615.19;;;-141.97;63.42
7018;BME280;3549;42.162;24.726;2023-10-13T06:14:36;47626.72;;;-141.97;63.38
7018;BME280;3549;42.162;24.726;2023-10-13T06:17:20;47601.72;;;-141.97;62.75
7018;BME280;3549;42.162;24.726;2023-10-13T06:20:05;47636.31;;;-141.97;62.23
7018;BME280;3549;42.162;24.726;2023-10-13T06:22:50;47624.78;;;-141.97;61.08
7018;BME280;3549;42.162;24.726;2023-10-13T06:25:34;47565.22;;;-141.97;60.53
7018;BME280;3549;42.162;24.726;2023-10-13T06:28:18;47590.19;;;-141.97;59.89
7018;BME280;3549;42.162;24.726;2023-10-13T06:31:04;47617.09;;;-141.97;59.75
7018;BME280;3549;42.162;24.726;2023-10-13T06:33:35;47590.19;;;-141.97;59.11
7018;BME280;3549;42.162;24.726;2023-10-13T06:36:02;47607.50;;;-141.97;59.61
7018;BME280;3549;42.162;24.726;2023-10-13T06:38:29;47595.97;;;-141.97;58.69
7018;BME280;3549;42.162;24.726;2023-10-13T06:41:17;47580.59;;;-141.97;58.50
7018;BME280;3549;42.162;24.726;2023-10-13T06:43:55;47592.13;;;-141.97;58.45
7018;BME280;3549;42.162;24.726;2023-10-13T06:46:30;47603.66;;;-141.97;57.71
7018;BME280;3549;42.162;24.726;2023-10-13T06:48:59;47597.88;;;-141.97;57.69
7018;BME280;3549;42.162;24.726;2023-10-13T06:51:25;47586.34;;;-141.97;56.58
7018;BME280;3549;42.162;24.726;2023-10-13T06:53:55;47588.28;;;-141.97;55.39
7018;BME280;3549;42.162;24.726;2023-10-13T06:56:22;47574.81;;;-141.97;54.46
7018;BME280;3549;42.162;24.726;2023-10-13T06:58:50;47519.06;;;-141.97;53.50
7018;BME280;3549;42.162;24.726;2023-10-13T07:01:16;47578.66;;;-141.97;52.98
7018;BME280;3549;42.162;24.726;2023-10-13T07:03:47;47628.63;;;-141.97;52.12
7018;BME280;3549;42.162;24.726;2023-10-13T07:06:18;47549.84;;;-141.97;51.21
7018;BME280;3549;42.162;24.726;2023-10-13T07:08:48;47586.34;;;-141.97;51.50
7018;BME280;3549;42.162;24.726;2023-10-13T07:11:26;47580.59;;;-141.97;50.89
7018;BME280;3549;42.162;24.726;2023-10-13T07:14:04;47536.38;;;-141.97;49.77
7018;BME280;3549;42.162;24.726;2023-10-13T07:17:04;47594.03;;;-141.97;49.38
7018;BME280;3549;42.162;24.726;2023-10-13T07:19:30;47526.75;;;-141.97;50.87
7018;BME280;3549;42.162;24.726;2023-10-13T07:21:57;47592.13;;;-141.97;49.42
7018;BME280;3549;42.162;24.726;2023-10-13T07:24:42;47582.50;;;-141.97;48.87
7018;BME280;3549;42.162;24.726;2023-10-13T07:27:07;47576.75;;;-141.97;48.67
7018;BME280;3549;42.162;24.726;2023-10-13T07:29:33;47557.53;;;-141.97;48.73
7018;BME280;3549;42.162;24.726;2023-10-13T07:32:02;47570.97;;;-141.97;47.23
7018;BME280;3549;42.162;24.726;2023-10-13T07:34:38;47570.97;;;-141.97;47.29
7018;BME280;3549;42.162;24.726;2023-10-13T07:37:04;47615.19;;;-141.97;46.34
7018;BME280;3549;42.162;24.726;2023-10-13T07:39:33;47484.47;;;-141.97;46.91
7018;BME280;3549;42.162;24.726;2023-10-13T07:42:04;47580.59;;;-141.97;45.67
7018;BME280;3549;42.162;24.726;2023-10-13T07:44:31;47736.28;;;-141.97;46.03
7018;BME280;3549;42.162;24.726;2023-10-13T07:46:59;47542.16;;;-141.97;46.62
7018;BME280;3549;42.162;24.726;2023-10-13T07:49:37;47653.63;;;-141.97;45.59
7018;BME280;3549;42.162;24.726;2023-10-13T07:52:10;47509.47;;;-141.97;45.23
7018;BME280;3549;42.162;24.726;2023-10-13T07:54:46;47576.75;;;-141.97;44.30
7018;BME280;3549;42.162;24.726;2023-10-13T07:57:21;47574.81;;;-141.97;43.35
7018;BME280;3549;42.162;24.726;2023-10-13T07:59:55;47542.16;;;-141.97;42.83
7018;BME280;3549;42.162;24.726;2023-10-13T08:02:31;47530.59;;;-141.97;41.92
7018;BME280;3549;42.162;24.726;2023-10-13T08:05:16;47688.22;;;-141.97;41.59
7018;BME280;3549;42.162;24.726;2023-10-13T08:08:02;47526.75;;;-141.97;41.32
7018;BME280;3549;42.162;24.726;2023-10-13T08:10:35;47474.88;;;-141.97;41.27
7018;BME280;3549;42.162;24.726;2023-10-13T08:13:01;47522.91;;;-141.97;41.08
7018;BME280;3549;42.162;24.726;2023-10-13T08:15:26;47557.53;;;-141.97;40.55
7018;BME280;3549;42.162;24.726;2023-10-13T08:17:59;47549.84;;;-141.97;39.95
7018;BME280;3549;42.162;24.726;2023-10-13T08:20:28;47540.22;;;-141.97;39.98
7018;BME280;3549;42.162;24.726;2023-10-13T08:22:56;47565.22;;;-141.97;40.16
7018;BME280;3549;42.162;24.726;2023-10-13T08:25:41;47522.91;;;-141.97;39.37
7018;BME280;3549;42.162;24.726;2023-10-13T08:28:25;47499.84;;;-141.97;39.73
7018;BME280;3549;42.162;24.726;2023-10-13T08:31:05;47544.06;;;-141.97;39.30
7018;BME280;3549;42.162;24.726;2023-10-13T08:33:50;47399.91;;;-141.97;38.64
7018;BME280;3549;42.162;24.726;2023-10-13T08:36:15;47453.72;;;-141.97;38.21
7018;BME280;3549;42.162;24.726;2023-10-13T08:38:55;47576.75;;;-141.97;37.81
7018;BME280;3549;42.162;24.726;2023-10-13T08:41:22;47467.19;;;-141.97;37.67
7018;BME280;3549;42.162;24.726;2023-10-13T08:43:49;47330.72;;;-141.97;37.94
7018;BME280;3549;42.162;24.726;2023-10-13T08:46:19;47607.50;;;-141.97;37.11
7018;BME280;3549;42.162;24.726;2023-10-13T08:48:53;47519.06;;;-141.97;36.92
7018;BME280;3549;42.162;24.726;2023-10-13T08:51:32;47667.06;;;-141.97;36.88
7018;BME280;3549;42.162;24.726;2023-10-13T08:54:12;47657.47;;;-141.97;36.56
7018;BME280;3549;42.162;24.726;2023-10-13T08:56:46;47394.16;;;-141.97;36.13
7018;BME280;3549;42.162;24.726;2023-10-13T08:59:22;47432.59;;;-141.97;35.98
7018;BME280;3549;42.162;24.726;2023-10-13T09:01:48;47469.09;;;-141.97;35.99
7018;BME280;3549;42.162;24.726;2023-10-13T09:04:14;47546.00;;;-141.97;35.92
7018;BME280;3549;42.162;24.726;2023-10-13T09:06:56;47488.31;;;-141.97;36.76
7018;BME280;3549;42.162;24.726;2023-10-13T09:09:27;47511.38;;;-141.97;36.13
7018;BME280;3549;42.162;24.726;2023-10-13T09:12:29;47480.63;;;-141.97;35.46
7018;BME280;3549;42.162;24.726;2023-10-13T09:14:59;47494.09;;;-141.97;34.25
7018;BME280;3549;42.162;24.726;2023-10-13T09:17:47;47490.25;;;-141.97;34.13
7018;BME280;3549;42.162;24.726;2023-10-13T09:20:42;47453.72;;;-141.97;34.21
7018;BME280;3549;42.162;24.726;2023-10-13T09:23:34;47380.69;;;-141.97;34.18
7018;BME280;3549;42.162;24.726;2023-10-13T09:26:40;47620.94;;;-141.97;34.39
7018;BME280;3549;42.162;24.726;2023-10-13T09:33:04;47576.75;;;-141.97;33.70
7018;BME280;3549;42.162;24.726;2023-10-13T09:36:10;47513.31;;;-141.97;32.97
7018;BME280;3549;42.162;24.726;2023-10-13T09:38:58;47378.78;;;-141.97;33.30
7018;BME280;3549;42.162;24.726;2023-10-13T09:41:57;47507.53;;;-141.97;34.34
7018;BME280;3549;42.162;24.726;2023-10-13T09:44:25;47474.88;;;-141.97;33.84
7018;BME280;3549;42.162;24.726;2023-10-13T09:47:07;47513.31;;;-141.97;33.41
7018;BME280;3549;42.162;24.726;2023-10-13T09:49:43;47521.00;;;-141.97;33.27
7018;BME280;3549;42.162;24.726;2023-10-13T09:52:18;47467.19;;;-141.97;33.29
7018;BME280;3549;42.162;24.726;2023-10-13T09:54:59;47424.91;;;-141.97;32.51
7018;BME280;3549;42.162;24.726;2023-10-13T09:57:31;47572.91;;;-141.97;32.15
7018;BME280;3549;42.162;24.726;2023-10-13T10:00:20;47461.41;;;-141.97;31.93
7018;BME280;3549;42.162;24.726;2023-10-13T10:03:06;47453.72;;;-141.97;31.77
7018;BME280;3549;42.162;24.726;2023-10-13T10:05:56;47451.81;;;-141.97;31.58
7018;BME280;3549;42.162;24.726;2023-10-13T10:08:29;47394.16;;;-141.97;31.96
7018;BME280;3549;42.162;24.726;2023-10-13T10:14:10;47403.75;;;-141.97;32.13
7018;BME280;3549;42.162;24.726;2023-10-13T10:19:25;47380.69;;;-141.97;31.63
7018;BME280;3549;42.162;24.726;2023-10-13T10:22:01;47421.06;;;-141.97;31.74
7018;BME280;3549;42.162;24.726;2023-10-13T10:24:29;47434.50;;;-141.97;31.51
7018;BME280;3549;42.162;24.726;2023-10-13T10:26:55;47369.16;;;-141.97;31.62
7018;BME280;3549;42.162;24.726;2023-10-13T10:29:21;47349.94;;;-141.97;31.36
7018;BME280;3549;42.162;24.726;2023-10-13T10:31:46;47542.16;;;-141.97;31.00
7018;BME280;3549;42.162;24.726;2023-10-13T10:34:16;47624.78;;;-141.97;30.46
7018;BME280;3549;42.162;24.726;2023-10-13T10:36:57;47321.13;;;-141.97;30.60
7018;BME280;3549;42.162;24.726;2023-10-13T10:39:36;47419.13;;;-141.97;31.06
7018;BME280;3549;42.162;24.726;2023-10-13T10:42:14;47644.00;;;-141.97;30.87
7018;BME280;3549;42.162;24.726;2023-10-13T10:44:54;47461.41;;;-141.97;31.21
7018;BME280;3549;42.162;24.726;2023-10-13T10:47:30;47428.75;;;-141.97;31.03
7018;BME280;3549;42.162;24.726;2023-10-13T10:50:04;47453.72;;;-141.97;31.20
7018;BME280;3549;42.162;24.726;2023-10-13T10:52:33;47349.94;;;-141.97;30.98
7018;BME280;3549;42.162;24.726;2023-10-13T10:55:03;47417.22;;;-141.97;30.78
7018;BME280;3549;42.162;24.726;2023-10-13T10:57:39;47365.31;;;-141.97;30.76
7018;BME280;3549;42.162;24.726;2023-10-13T11:00:18;47419.13;;;-141.97;30.71
7018;BME280;3549;42.162;24.726;2023-10-13T11:03:05;47430.66;;;-141.97;31.18
7018;BME280;3549;42.162;24.726;2023-10-13T11:05:30;47253.84;;;-141.97;31.63
7018;BME280;3549;42.162;24.726;2023-10-13T11:08:01;47544.06;;;-141.97;31.20
7018;BME280;3549;42.162;24.726;2023-10-13T11:10:27;47434.50;;;-141.97;31.21
7018;BME280;3549;42.162;24.726;2023-10-13T11:12:57;47565.22;;;-141.97;30.92
7018;BME280;3549;42.162;24.726;2023-10-13T11:15:42;47334.56;;;-141.97;31.04
7018;BME280;3549;42.162;24.726;2023-10-13T11:18:10;47653.63;;;-141.97;30.87
7018;BME280;3549;42.162;24.726;2023-10-13T11:20:42;47384.53;;;-141.97;30.49
7018;BME280;3549;42.162;24.726;2023-10-13T11:23:12;47440.28;;;-141.97;29.50
7018;BME280;3549;42.162;24.726;2023-10-13T11:25:38;47417.22;;;-141.97;29.38
7018;BME280;3549;42.162;24.726;2023-10-13T11:28:13;47411.44;;;-141.97;30.18
7018;BME280;3549;42.162;24.726;2023-10-13T11:30:59;47298.06;;;-141.97;29.88
7018;BME280;3549;42.162;24.726;2023-10-13T11:33:26;47361.47;;;-141.97;29.73
7018;BME280;3549;42.162;24.726;2023-10-13T11:35:56;47323.03;;;-141.97;30.14
7018;BME280;3549;42.162;24.726;2023-10-13T11:38:29;47436.44;;;-141.97;30.31
7018;BME280;3549;42.162;24.726;2023-10-13T11:41:08;47442.19;;;-141.97;30.47
7018;BME280;3549;42.162;24.726;2023-10-13T11:43:54;47407.59;;;-141.97;30.66
7018;BME280;3549;42.162;24.726;2023-10-13T11:46:37;47478.72;;;-141.97;30.52
7018;BME280;3549;42.162;24.726;2023-10-13T11:49:06;47392.22;;;-141.97;30.32
7018;BME280;3549;42.162;24.726;2023-10-13T11:51:45;47436.44;;;-141.97;29.93
7018;BME280;3549;42.162;24.726;2023-10-13T11:54:15;47396.06;;;-141.97;29.55
7018;BME280;3549;42.162;24.726;2023-10-13T11:56:42;47401.84;;;-141.97;29.61
7018;BME280;3549;42.162;24.726;2023-10-13T11:59:08;47405.69;;;-141.97;29.03
7018;BME280;3549;42.162;24.726;2023-10-13T12:01:48;47376.84;;;-141.97;29.13
7018;BME280;3549;42.162;24.726;2023-10-13T12:04:33;47415.28;;;-141.97;28.87
7018;BME280;3549;42.162;24.726;2023-10-13T12:07:17;47355.72;;;-141.97;28.90
7018;BME280;3549;42.162;24.726;2023-10-13T12:09:49;47371.09;;;-141.97;28.81
7018;BME280;3549;42.162;24.726;2023-10-13T12:12:24;47396.06;;;-141.97;28.54
7018;BME280;3549;42.162;24.726;2023-10-13T12:14:50;47534.44;;;-141.97;28.63
7018;BME280;3549;42.162;24.726;2023-10-13T12:17:20;47405.69;;;-141.97;29.04
7018;BME280;3549;42.162;24.726;2023-10-13T12:19:56;47340.34;;;-141.97;28.55
7018;BME280;3549;42.162;24.726;2023-10-13T12:22:22;47384.53;;;-141.97;29.48
7018;BME280;3549;42.162;24.726;2023-10-13T12:25:00;47407.59;;;-141.97;28.96
7018;BME280;3549;42.162;24.726;2023-10-13T12:27:29;47396.06;;;-141.97;28.23
7018;BME280;3549;42.162;24.726;2023-10-13T12:30:11;47357.63;;;-141.97;28.59
7018;BME280;3549;42.162;24.726;2023-10-13T12:32:39;47365.31;;;-141.97;28.00
7018;BME280;3549;42.162;24.726;2023-10-13T12:35:10;47411.44;;;-141.97;28.03
7018;BME280;3549;42.162;24.726;2023-10-13T12:37:35;47376.84;;;-141.97;27.94
7018;BME280;3549;42.162;24.726;2023-10-13T12:40:02;47315.34;;;-141.97;27.58
7018;BME280;3549;42.162;24.726;2023-10-13T12:42:47;47373.00;;;-141.97;27.48
7018;BME280;3549;42.162;24.726;2023-10-13T12:45:31;47384.53;;;-141.97;27.37
7018;BME280;3549;42.162;24.726;2023-10-13T12:48:15;47359.56;;;-141.97;27.65
7018;BME280;3549;42.162;24.726;2023-10-13T12:51:02;47332.66;;;-141.97;27.02
7018;BME280;3549;42.162;24.726;2023-10-13T12:53:51;47363.41;;;-141.97;26.64
7018;BME280;3549;42.162;24.726;2023-10-13T12:56:18;47344.19;;;-141.97;26.69
7018;BME280;3549;42.162;24.726;2023-10-13T12:58:53;47311.50;;;-141.97;26.73
7018;BME280;3549;42.162;24.726;2023-10-13T13:01:19;47338.41;;;-141.97;25.96
7018;BME280;3549;42.162;24.726;2023-10-13T13:03:46;47332.66;;;-141.97;25.82
7018;BME280;3549;42.162;24.726;2023-10-13T13:06:23;47398.00;;;-141.97;25.97
7018;BME280;3549;42.162;24.726;2023-10-13T13:08:58;47376.84;;;-141.97;26.32
7018;BME280;3549;42.162;24.726;2023-10-13T13:11:24;47396.06;;;-141.97;26.61
7018;BME280;3549;42.162;24.726;2023-10-13T13:13:50;47380.69;;;-141.97;27.27
7018;BME280;3549;42.162;24.726;2023-10-13T13:16:17;47376.84;;;-141.97;26.50
7018;BME280;3549;42.162;24.726;2023-10-13T13:19:01;47357.63;;;-141.97;25.77
7018;BME280;3549;42.162;24.726;2023-10-13T13:21:36;47374.94;;;-141.97;25.52
7018;BME280;3549;42.162;24.726;2023-10-13T13:24:02;47311.50;;;-141.97;24.96
7018;BME280;3549;42.162;24.726;2023-10-13T13:26:29;47526.75;;;-141.97;24.82
7018;BME280;3549;42.162;24.726;2023-10-13T13:28:56;47303.81;;;-141.97;24.70
7018;BME280;3549;42.162;24.726;2023-10-13T13:31:22;47299.97;;;-141.97;24.37
7018;BME280;3549;42.162;24.726;2023-10-13T13:33:51;47317.28;;;-141.97;24.19
7018;BME280;3549;42.162;24.726;2023-10-13T13:36:16;47284.59;;;-141.97;24.04
7018;BME280;3549;42.162;24.726;2023-10-13T13:38:42;47280.75;;;-141.97;24.63
7018;BME280;3549;42.162;24.726;2023-10-13T13:41:15;47351.88;;;-141.97;24.18
7018;BME280;3549;42.162;24.726;2023-10-13T13:43:44;47309.59;;;-141.97;24.89
7018;BME280;3549;42.162;24.726;2023-10-13T13:46:19;47336.50;;;-141.97;26.00
7018;BME280;3549;42.162;24.726;2023-10-13T13:48:45;47365.31;;;-141.97;25.87